Time;durP1;ratioP1;P1;durP2;ratioP2;P2;SDS_P1;SDS_P2;PMS_P1;PMS_P2;Temp;Humidity;BMP_temperature;BMP_pressure;BME280_temperature;BME280_humidity;BME280_pressure;Samples;Min_cycle;Max_cycle;Signal;HPM_P1;HPM_P2
2021/10/24 00:00:55;;;;;;;3.37;2.60;;;1.90;99.90;1.60;101990.00;;;;4934986;28;96263;-67
2021/10/24 00:03:20;;;;;;;4.60;3.37;;;1.90;99.90;1.60;102005.00;;;;4935798;28;88495;-67
2021/10/24 00:05:46;;;;;;;6.90;3.47;;;1.90;99.90;1.50;102010.00;;;;4937516;28;109975;-67
2021/10/24 00:08:12;;;;;;;5.87;3.40;;;1.90;99.90;1.50;102005.00;;;;4953514;28;88022;-67
2021/10/24 00:10:38;;;;;;;4.83;2.90;;;1.90;99.90;1.50;102008.00;;;;4937967;28;90293;-67
2021/10/24 00:13:03;;;;;;;4.33;3.13;;;1.80;99.90;1.50;102015.00;;;;4937780;28;118271;-67
2021/10/24 00:15:29;;;;;;;4.60;3.17;;;1.80;99.90;1.50;102006.00;;;;4938019;28;110258;-68
2021/10/24 00:17:55;;;;;;;4.40;3.50;;;1.80;99.90;1.40;102011.00;;;;4937818;28;107686;-68
2021/10/24 00:20:21;;;;;;;4.30;3.37;;;1.70;99.90;1.40;102016.00;;;;4938167;28;119131;-68
2021/10/24 00:22:46;;;;;;;5.63;3.27;;;1.80;99.90;1.30;102014.00;;;;4942968;28;87818;-68
2021/10/24 00:25:12;;;;;;;3.90;2.83;;;1.70;99.90;1.30;102013.00;;;;4937338;28;110915;-68
2021/10/24 00:27:38;;;;;;;4.70;3.00;;;1.80;99.90;1.20;102011.00;;;;4938128;28;109022;-68
2021/10/24 00:30:05;;;;;;;4.37;2.87;;;2.40;99.90;1.20;102015.00;;;;4937714;28;118079;-68
2021/10/24 00:32:31;;;;;;;2.93;2.63;;;1.50;99.90;1.20;102021.00;;;;4937897;28;100622;-68
2021/10/24 00:34:57;;;;;;;7.43;3.60;;;1.50;99.90;1.20;102018.00;;;;4937325;28;97243;-68
2021/10/24 00:37:22;;;;;;;7.53;3.87;;;1.50;99.90;1.20;102015.00;;;;4937163;28;109052;-66
2021/10/24 00:39:48;;;;;;;5.77;3.57;;;1.50;99.90;1.10;102009.00;;;;4937751;28;117251;-67
2021/10/24 00:42:14;;;;;;;4.07;2.60;;;1.90;99.90;1.10;102014.00;;;;4951921;28;115913;-67
2021/10/24 00:44:42;;;;;;;2.80;2.50;;;1.40;99.90;1.10;102020.00;;;;4936231;28;110494;-66
2021/10/24 00:47:09;;;;;;;7.47;3.30;;;1.40;99.90;1.10;102022.00;;;;4937869;28;87698;-66
2021/10/24 00:49:35;;;;;;;4.70;3.10;;;1.30;99.90;1.00;102009.00;;;;4937604;28;89027;-66
2021/10/24 00:52:01;;;;;;;7.70;2.70;;;1.40;99.90;1.00;102015.00;;;;4937232;28;117552;-66
2021/10/24 00:54:28;;;;;;;3.23;2.80;;;1.40;99.90;1.00;102013.00;;;;4938875;28;87798;-66
2021/10/24 00:56:55;;;;;;;4.03;2.60;;;1.30;99.90;1.00;102011.00;;;;4937926;28;87877;-66
2021/10/24 00:59:23;;;;;;;3.73;2.50;;;1.90;99.90;0.90;102011.00;;;;4937076;28;88717;-66
2021/10/24 01:01:49;;;;;;;2.73;2.53;;;2.10;99.90;0.90;102006.00;;;;4951873;28;90706;-67
2021/10/24 01:04:15;;;;;;;7.17;2.80;;;1.20;99.90;0.90;102012.00;;;;4936792;28;111167;-66
2021/10/24 01:06:43;;;;;;;4.37;3.13;;;1.80;99.90;0.90;102008.00;;;;4936473;28;87862;-68
2021/10/24 01:09:13;;;;;;;6.23;3.33;;;1.20;99.90;0.80;102009.00;;;;4937619;28;88082;-66
2021/10/24 01:11:41;;;;;;;4.37;2.83;;;1.10;99.90;0.80;102017.00;;;;4939678;28;87657;-66
2021/10/24 01:14:08;;;;;;;5.33;3.57;;;1.20;99.90;0.80;102004.00;;;;4948150;28;87666;-67
2021/10/24 01:16:36;;;;;;;3.93;3.10;;;1.80;99.90;0.80;102011.00;;;;4943162;28;87050;-69
2021/10/24 01:19:07;;;;;;;5.43;3.27;;;1.90;99.90;0.80;102012.00;;;;4941683;28;89358;-68
2021/10/24 01:21:35;;;;;;;5.63;3.50;;;1.70;99.90;0.70;102025.00;;;;4937802;28;101140;-66
2021/10/24 01:24:01;;;;;;;5.77;3.17;;;1.10;99.90;0.70;102012.00;;;;4951442;28;88663;-67
2021/10/24 01:26:28;;;;;;;6.33;2.47;;;1.10;99.90;0.70;102011.00;;;;4952898;28;87937;-66
2021/10/24 01:28:55;;;;;;;4.83;3.00;;;1.10;99.90;0.60;102006.00;;;;4936694;28;87748;-66
2021/10/24 01:31:22;;;;;;;3.10;2.80;;;1.10;99.90;0.60;102010.00;;;;4937486;28;102572;-66
2021/10/24 01:33:47;;;;;;;4.03;3.07;;;1.00;99.90;0.60;102012.00;;;;4936091;28;95966;-67
2021/10/24 01:36:14;;;;;;;3.37;2.87;;;1.00;99.90;0.60;101997.00;;;;4936125;28;108872;-68
2021/10/24 01:38:46;;;;;;;5.67;2.93;;;0.90;99.90;0.50;101998.00;;;;4937147;28;88810;-68
2021/10/24 01:41:12;;;;;;;4.83;2.53;;;1.00;99.90;0.50;101995.00;;;;4935928;28;87169;-68
2021/10/24 01:43:38;;;;;;;4.43;3.50;;;0.80;99.90;0.50;101990.00;;;;4937463;28;87579;-67
2021/10/24 01:46:05;;;;;;;5.03;3.00;;;0.80;99.90;0.40;101993.00;;;;4937674;28;87741;-68
2021/10/24 01:48:30;;;;;;;3.33;2.60;;;0.80;99.90;0.40;101997.00;;;;4936263;28;107593;-67
2021/10/24 01:50:57;;;;;;;4.03;3.03;;;0.70;99.90;0.40;101994.00;;;;4936817;28;89799;-67
2021/10/24 01:53:27;;;;;;;3.70;2.93;;;0.70;99.90;0.40;101999.00;;;;4936955;28;87818;-67
2021/10/24 01:55:53;;;;;;;5.57;3.43;;;0.80;99.90;0.30;101993.00;;;;4936344;28;91373;-67
2021/10/24 01:58:19;;;;;;;3.13;2.70;;;0.70;99.90;0.30;101989.00;;;;4936187;28;89197;-67
2021/10/24 02:00:46;;;;;;;4.37;2.90;;;0.70;99.90;0.30;102000.00;;;;4936956;28;87935;-67
2021/10/24 02:03:12;;;;;;;3.57;2.73;;;0.60;99.90;0.30;101998.00;;;;4936456;28;88071;-67
2021/10/24 02:05:39;;;;;;;3.20;2.80;;;0.60;99.90;0.30;101991.00;;;;4934888;28;110007;-67
2021/10/24 02:08:06;;;;;;;3.53;2.57;;;1.20;99.90;0.30;101995.00;;;;4950257;28;94341;-67
2021/10/24 02:10:32;;;;;;;4.87;2.53;;;0.60;99.90;0.30;101995.00;;;;4936409;28;101208;-67
2021/10/24 02:12:59;;;;;;;4.53;2.60;;;0.60;99.90;0.30;101983.00;;;;4934133;28;88959;-67
2021/10/24 02:15:25;;;;;;;4.30;2.40;;;0.60;99.90;0.30;101980.00;;;;4936399;28;87912;-68
2021/10/24 02:17:51;;;;;;;3.93;2.47;;;0.70;99.90;0.30;101976.00;;;;4951904;28;90199;-67
2021/10/24 02:20:17;;;;;;;3.93;2.73;;;1.40;99.90;0.30;101994.00;;;;4937330;28;87830;-67
2021/10/24 02:22:43;;;;;;;5.50;3.10;;;1.20;99.90;0.30;101988.00;;;;4936551;28;87736;-67
2021/10/24 02:25:09;;;;;;;2.77;2.50;;;0.60;99.90;0.30;101993.00;;;;4937175;28;87652;-66
2021/10/24 02:27:36;;;;;;;3.80;2.70;;;0.60;99.90;0.20;101982.00;;;;4935742;28;105541;-66
2021/10/24 02:30:04;;;;;;;4.07;2.43;;;0.60;99.90;0.30;101988.00;;;;4935498;28;88623;-66
2021/10/24 02:32:30;;;;;;;5.37;2.10;;;0.60;99.90;0.30;101982.00;;;;4934308;28;87911;-66
2021/10/24 02:34:56;;;;;;;2.20;2.00;;;0.50;99.90;0.20;101979.00;;;;4935862;28;109978;-67
2021/10/24 02:37:22;;;;;;;4.10;2.17;;;0.60;99.90;0.30;101980.00;;;;4934261;28;89436;-67
2021/10/24 02:39:47;;;;;;;5.03;2.40;;;0.60;99.90;0.20;101980.00;;;;4935608;28;115856;-67
2021/10/24 02:42:13;;;;;;;4.00;2.73;;;0.50;99.90;0.20;101983.00;;;;4936472;28;87840;-67
2021/10/24 02:44:39;;;;;;;6.43;3.33;;;0.60;99.90;0.20;101988.00;;;;4936435;28;87584;-67
2021/10/24 02:47:04;;;;;;;4.77;3.07;;;0.50;99.90;0.20;101985.00;;;;4933838;28;88851;-67
2021/10/24 02:49:30;;;;;;;6.13;2.63;;;0.60;99.90;0.20;101990.00;;;;4934548;28;115898;-67
2021/10/24 02:51:57;;;;;;;2.73;2.30;;;0.50;99.90;0.20;101987.00;;;;4936025;28;109739;-67
2021/10/24 02:54:24;;;;;;;3.90;3.00;;;0.60;99.90;0.20;101989.00;;;;4935990;28;87151;-67
2021/10/24 02:56:50;;;;;;;4.03;2.87;;;0.50;99.90;0.10;101997.00;;;;4935805;28;88624;-67
2021/10/24 02:59:17;;;;;;;3.37;2.47;;;0.50;99.90;0.10;101988.00;;;;4934556;28;116466;-67
2021/10/24 03:01:43;;;;;;;6.10;2.80;;;0.50;99.90;0.10;101991.00;;;;4936434;28;96203;-67
2021/10/24 03:04:12;;;;;;;5.30;2.67;;;0.50;99.90;0.10;101990.00;;;;4936176;28;87920;-67
2021/10/24 03:06:39;;;;;;;3.03;2.03;;;0.40;99.90;0.10;101993.00;;;;4934154;28;88774;-67
2021/10/24 03:09:06;;;;;;;5.37;2.60;;;0.50;99.90;0.10;101996.00;;;;4935606;28;87811;-67
2021/10/24 03:11:33;;;;;;;2.70;2.17;;;0.40;99.90;0.10;101994.00;;;;4936601;28;87764;-67
2021/10/24 03:13:59;;;;;;;5.07;2.63;;;0.60;99.90;0.00;102003.00;;;;4935871;28;87719;-67
2021/10/24 03:16:24;;;;;;;4.27;2.17;;;0.40;99.90;0.00;101994.00;;;;4949105;28;117980;-67
2021/10/24 03:18:51;;;;;;;2.83;2.30;;;0.40;99.90;0.00;101994.00;;;;4934824;28;86861;-67
2021/10/24 03:21:16;;;;;;;2.97;2.60;;;0.40;99.90;0.00;102004.00;;;;4946392;28;90970;-67
2021/10/24 03:23:42;;;;;;;4.10;2.07;;;0.30;99.90;0.00;102000.00;;;;4935495;28;108477;-67
2021/10/24 03:26:09;;;;;;;3.63;2.33;;;0.30;99.90;0.00;102002.00;;;;4934469;28;117881;-66
2021/10/24 03:28:34;;;;;;;3.53;2.40;;;0.30;99.90;0.00;102002.00;;;;4934782;28;91926;-66
2021/10/24 03:31:01;;;;;;;3.37;2.33;;;0.30;99.90;-0.10;102000.00;;;;4936084;28;87989;-66
2021/10/24 03:33:27;;;;;;;4.53;2.77;;;0.30;99.90;-0.10;101997.00;;;;4935513;28;87698;-66
2021/10/24 03:35:52;;;;;;;2.80;2.43;;;0.30;99.90;-0.10;101990.00;;;;4934432;28;118009;-66
2021/10/24 03:38:19;;;;;;;3.07;2.77;;;0.20;99.90;-0.10;101999.00;;;;4934119;28;87812;-66
2021/10/24 03:40:44;;;;;;;3.10;2.63;;;0.30;99.90;-0.10;101991.00;;;;4935710;28;87923;-65
2021/10/24 03:43:10;;;;;;;3.60;2.33;;;0.20;99.90;-0.20;101994.00;;;;4934897;28;108945;-65
2021/10/24 03:45:36;;;;;;;3.40;2.33;;;1.10;99.90;-0.20;101990.00;;;;4942689;28;87985;-67
2021/10/24 03:48:02;;;;;;;2.50;2.23;;;0.20;99.90;-0.10;102000.00;;;;4935199;28;102584;-68
2021/10/24 03:50:27;;;;;;;2.83;2.57;;;0.20;99.90;-0.10;102007.00;;;;4934946;28;96528;-67
2021/10/24 03:52:53;;;;;;;2.17;1.87;;;0.20;99.90;-0.10;101999.00;;;;4933841;28;109598;-67
2021/10/24 03:55:19;;;;;;;2.67;2.37;;;0.20;99.90;-0.10;102005.00;;;;4934423;28;117519;-66
2021/10/24 03:57:44;;;;;;;4.93;2.27;;;0.90;99.90;-0.10;102001.00;;;;4934223;28;117517;-66
2021/10/24 04:00:13;;;;;;;4.17;3.00;;;0.20;99.90;-0.10;102008.00;;;;4934895;28;87736;-67
2021/10/24 04:02:58;;;;;;;2.97;2.07;;;0.20;99.90;-0.20;102005.00;;;;4950097;28;87960;-66
2021/10/24 04:05:27;;;;;;;2.10;1.80;;;0.20;99.90;-0.10;102000.00;;;;4915258;28;88688;-66
2021/10/24 04:07:54;;;;;;;2.03;1.90;;;0.20;99.90;-0.10;102006.00;;;;4929845;28;87961;-66
2021/10/24 04:10:23;;;;;;;2.67;2.10;;;1.10;99.90;-0.10;102005.00;;;;4935405;28;87702;-67
2021/10/24 04:12:50;;;;;;;1.87;1.70;;;0.30;99.90;-0.20;102003.00;;;;4935173;28;87540;-66
2021/10/24 04:15:18;;;;;;;2.40;2.00;;;0.10;99.90;-0.20;102013.00;;;;4933221;28;107931;-67
2021/10/24 04:17:44;;;;;;;2.70;2.10;;;0.20;99.90;-0.20;102003.00;;;;4934456;28;89908;-67
2021/10/24 04:20:14;;;;;;;2.13;1.93;;;0.20;99.90;-0.20;101998.00;;;;4934688;28;87557;-67
2021/10/24 04:22:40;;;;;;;2.73;2.07;;;0.20;99.90;-0.20;101999.00;;;;4935262;28;87380;-67
2021/10/24 04:25:09;;;;;;;3.73;3.00;;;0.20;99.90;-0.20;102004.00;;;;4934612;28;88353;-67
2021/10/24 04:27:36;;;;;;;4.10;2.30;;;0.10;99.90;-0.20;101994.00;;;;4934815;28;88195;-67
2021/10/24 04:30:05;;;;;;;4.17;2.33;;;0.20;99.90;-0.30;101993.00;;;;4935264;28;87873;-67
2021/10/24 04:32:31;;;;;;;2.00;1.80;;;0.10;99.90;-0.20;101989.00;;;;4935770;28;87165;-66
2021/10/24 04:34:56;;;;;;;3.60;2.53;;;0.10;99.90;-0.20;101986.00;;;;4933627;28;97273;-66
2021/10/24 04:37:22;;;;;;;3.40;2.97;;;0.10;99.90;-0.30;101988.00;;;;4932035;28;116628;-66
2021/10/24 04:39:48;;;;;;;3.67;2.27;;;0.10;99.90;-0.20;101982.00;;;;4934835;28;89055;-66
2021/10/24 04:42:13;;;;;;;2.50;2.30;;;0.10;99.90;-0.20;101990.00;;;;4935209;28;87715;-66
2021/10/24 04:44:39;;;;;;;4.87;2.80;;;0.40;99.90;-0.30;101997.00;;;;4933859;28;117318;-66
2021/10/24 04:47:05;;;;;;;3.10;2.80;;;0.10;99.90;-0.30;101991.00;;;;4933632;28;116809;-66
2021/10/24 04:49:31;;;;;;;3.30;2.67;;;0.00;99.90;-0.30;101995.00;;;;4934395;28;87894;-66
2021/10/24 04:51:58;;;;;;;4.23;2.73;;;0.00;99.90;-0.40;101993.00;;;;4937858;28;87768;-66
2021/10/24 04:54:24;;;;;;;3.80;2.27;;;0.00;99.90;-0.40;101994.00;;;;4937728;28;88451;-66
2021/10/24 04:56:51;;;;;;;3.13;2.67;;;0.00;99.90;-0.40;101998.00;;;;4953140;28;88239;-66
2021/10/24 04:59:18;;;;;;;5.80;2.77;;;-0.10;99.90;-0.40;101994.00;;;;4937797;28;89306;-66
2021/10/24 05:01:45;;;;;;;3.50;1.83;;;-0.10;99.90;-0.50;102002.00;;;;4937399;28;87744;-66
2021/10/24 05:04:11;;;;;;;5.20;3.20;;;1.10;99.90;-0.50;102007.00;;;;4936736;28;88515;-66
2021/10/24 05:06:38;;;;;;;3.23;1.93;;;-0.10;99.90;-0.50;101995.00;;;;4937415;28;99002;-66
2021/10/24 05:09:04;;;;;;;2.13;1.93;;;-0.10;99.90;-0.50;101997.00;;;;4937466;28;87520;-67
2021/10/24 05:11:30;;;;;;;4.83;2.53;;;-0.20;99.90;-0.50;102005.00;;;;4938283;28;87967;-66
2021/10/24 05:13:56;;;;;;;3.23;2.07;;;-0.20;99.90;-0.50;101998.00;;;;4935914;28;88608;-66
2021/10/24 05:16:21;;;;;;;5.83;2.87;;;-0.10;99.90;-0.50;102003.00;;;;4937836;28;87539;-67
2021/10/24 05:18:47;;;;;;;3.97;2.80;;;-0.20;99.90;-0.50;102003.00;;;;4936734;28;109444;-66
2021/10/24 05:21:13;;;;;;;2.57;2.33;;;-0.10;99.90;-0.50;102006.00;;;;4943106;28;93109;-68
2021/10/24 05:23:45;;;;;;;5.67;2.90;;;-0.20;99.90;-0.50;102000.00;;;;4937185;28;112069;-66
2021/10/24 05:26:10;;;;;;;3.80;3.27;;;0.30;99.90;-0.50;101999.00;;;;4945356;28;88104;-67
2021/10/24 05:28:36;;;;;;;5.03;2.53;;;-0.10;99.90;-0.50;101998.00;;;;4943016;28;88643;-67
2021/10/24 05:31:02;;;;;;;2.37;2.17;;;-0.10;99.90;-0.50;101997.00;;;;4938541;28;107741;-67
2021/10/24 05:33:28;;;;;;;7.53;3.33;;;-1.00;99.90;-0.50;101998.00;;;;4937079;28;88680;-67
2021/10/24 05:35:54;;;;;;;3.93;2.40;;;-0.10;99.90;-0.50;102011.00;;;;4937735;28;102227;-66
2021/10/24 05:38:21;;;;;;;8.43;3.00;;;-0.20;99.90;-0.50;102011.00;;;;4937002;28;87781;-65
2021/10/24 05:40:48;;;;;;;3.87;2.57;;;-0.20;99.90;-0.50;102011.00;;;;4937636;28;87885;-66
2021/10/24 05:43:15;;;;;;;2.87;2.33;;;-0.20;99.90;-0.50;102008.00;;;;4936411;28;89195;-66
2021/10/24 05:45:44;;;;;;;4.37;2.63;;;-0.30;99.90;-0.50;102015.00;;;;4937388;28;94269;-66
2021/10/24 05:48:11;;;;;;;3.07;2.37;;;-0.10;99.90;-0.60;102018.00;;;;4937337;28;88330;-65
2021/10/24 05:50:37;;;;;;;4.47;2.30;;;-0.30;99.90;-0.60;102017.00;;;;4937132;28;88021;-65
2021/10/24 05:53:03;;;;;;;3.17;2.40;;;0.60;99.90;-0.60;102010.00;;;;4936377;28;88926;-65
2021/10/24 05:55:29;;;;;;;2.70;2.50;;;0.40;99.90;-0.60;102012.00;;;;4935729;28;110228;-65
2021/10/24 05:57:54;;;;;;;2.37;2.17;;;-0.30;99.90;-0.60;102016.00;;;;4937329;28;87722;-65
2021/10/24 06:00:20;;;;;;;3.07;2.10;;;-0.30;99.90;-0.60;102010.00;;;;4916785;28;107928;-65
2021/10/24 06:02:46;;;;;;;2.40;2.20;;;-0.20;99.90;-0.60;102019.00;;;;4935206;28;118415;-65
2021/10/24 06:05:11;;;;;;;2.77;2.40;;;0.10;99.90;-0.50;102022.00;;;;4935035;28;118359;-65
2021/10/24 06:07:37;;;;;;;2.03;1.90;;;-0.20;99.90;-0.50;102030.00;;;;4951018;28;99939;-65
2021/10/24 06:10:20;;;;;;;2.67;2.47;;;-0.20;99.90;-0.40;102005.00;;;;4936528;28;106439;-65
2021/10/24 06:12:51;;;;;;;5.17;3.03;;;-0.10;99.90;-0.40;102013.00;;;;4936300;28;87689;-65
2021/10/24 06:15:19;;;;;;;6.47;4.67;;;0.00;99.90;-0.30;102001.00;;;;4933942;28;88127;-66
2021/10/24 06:17:47;;;;;;;16.53;6.50;;;0.00;99.90;-0.30;102013.00;;;;4951374;28;88709;-66
2021/10/24 06:20:19;;;;;;;7.63;5.40;;;0.00;99.90;-0.30;102027.00;;;;4936864;28;95797;-67
2021/10/24 06:22:45;;;;;;;10.20;5.57;;;0.00;99.90;-0.30;102022.00;;;;4947091;28;87958;-66
2021/10/24 06:25:14;;;;;;;13.33;6.33;;;0.10;99.90;-0.20;102019.00;;;;4933754;28;88694;-66
2021/10/24 06:27:42;;;;;;;13.63;6.80;;;0.10;99.90;-0.10;102019.00;;;;4936225;28;87796;-66
2021/10/24 06:30:12;;;;;;;11.60;6.07;;;0.20;99.90;0.00;102028.00;;;;4937198;28;87993;-67
2021/10/24 06:32:38;;;;;;;12.97;6.67;;;0.30;99.90;0.10;102025.00;;;;4934679;28;87718;-67
2021/10/24 06:35:05;;;;;;;10.27;6.20;;;0.40;99.90;0.30;102027.00;;;;4935881;28;99814;-67
2021/10/24 06:37:44;;;;;;;10.77;6.57;;;0.50;99.90;0.50;102026.00;;;;4936160;28;87740;-67
2021/10/24 06:40:12;;;;;;;6.73;5.30;;;0.70;99.90;0.70;102029.00;;;;4936393;28;87887;-67
2021/10/24 06:42:38;;;;;;;5.80;4.70;;;1.40;99.90;1.00;102032.00;;;;4936231;28;88687;-67
2021/10/24 06:45:08;;;;;;;6.33;3.90;;;1.90;99.90;1.30;102039.00;;;;4937646;28;93360;-67
2021/10/24 06:47:35;;;;;;;4.63;4.00;;;1.50;99.90;1.70;102028.00;;;;4939996;28;87685;-68
2021/10/24 06:50:01;;;;;;;5.53;4.33;;;2.60;99.90;2.00;102034.00;;;;4967622;28;89477;-67
2021/10/24 06:52:27;;;;;;;5.00;3.87;;;2.10;99.90;2.30;102034.00;;;;4935562;28;88607;-67
2021/10/24 06:54:52;;;;;;;7.70;4.20;;;2.50;99.90;2.60;102044.00;;;;4935775;28;108109;-68
2021/10/24 06:57:21;;;;;;;3.50;3.20;;;3.40;99.90;2.90;102040.00;;;;4935176;28;108124;-68
2021/10/24 06:59:47;;;;;;;5.40;3.53;;;2.90;99.90;3.20;102047.00;;;;4936331;28;87047;-68
2021/10/24 07:02:13;;;;;;;3.77;2.93;;;3.20;99.90;3.50;102046.00;;;;4935965;28;102081;-68
2021/10/24 07:04:39;;;;;;;3.20;2.73;;;4.40;99.90;3.90;102049.00;;;;4950769;28;87879;-68
2021/10/24 07:07:05;;;;;;;3.77;3.23;;;3.90;99.90;4.20;102046.00;;;;4934603;28;110807;-68
2021/10/24 07:09:31;;;;;;;6.97;3.60;;;4.30;99.90;4.60;102053.00;;;;4936474;28;88157;-69
2021/10/24 07:11:57;;;;;;;3.83;2.70;;;4.60;99.90;4.90;102047.00;;;;4938426;28;87659;-69
2021/10/24 07:14:23;;;;;;;5.20;4.00;;;5.40;99.90;5.20;102047.00;;;;4932647;28;88036;-69
2021/10/24 07:16:49;;;;;;;6.97;4.53;;;5.20;99.90;5.50;102044.00;;;;4935304;28;87590;-71
2021/10/24 07:19:15;;;;;;;7.60;4.30;;;5.50;99.90;5.80;102046.00;;;;4932715;28;94863;-68
2021/10/24 07:21:41;;;;;;;4.43;3.43;;;5.90;99.90;6.10;102051.00;;;;4953422;28;116657;-68
2021/10/24 07:24:06;;;;;;;7.20;4.33;;;6.10;99.90;6.40;102062.00;;;;4949801;28;104616;-67
2021/10/24 07:26:32;;;;;;;5.90;4.50;;;6.50;99.90;6.70;102055.00;;;;4935860;28;87765;-67
2021/10/24 07:28:59;;;;;;;9.03;6.33;;;6.80;99.90;7.00;102062.00;;;;4935541;28;87657;-68
2021/10/24 07:31:26;;;;;;;6.60;5.03;;;7.00;99.90;7.30;102059.00;;;;4933006;28;100201;-68
2021/10/24 07:33:52;;;;;;;9.17;7.43;;;7.30;99.90;7.60;102046.00;;;;4948641;28;88952;-67
2021/10/24 07:36:18;;;;;;;28.63;20.07;;;7.70;99.90;8.00;102061.00;;;;4934662;28;87935;-67
2021/10/24 07:38:45;;;;;;;15.97;7.37;;;8.00;99.90;8.30;102056.00;;;;4933059;28;108768;-68
2021/10/24 07:41:12;;;;;;;8.17;5.17;;;8.30;99.90;8.60;102065.00;;;;4944968;28;94431;-67
2021/10/24 07:43:39;;;;;;;7.93;3.50;;;8.70;99.90;9.00;102062.00;;;;4927852;28;89239;-68
2021/10/24 07:46:06;;;;;;;5.80;5.17;;;8.90;99.90;9.30;102068.00;;;;4932303;28;87785;-67
2021/10/24 07:48:32;;;;;;;6.83;4.03;;;9.20;99.90;9.60;102054.00;;;;4946677;28;89717;-67
2021/10/24 07:50:59;;;;;;;4.27;2.90;;;9.60;99.90;10.00;102060.00;;;;4932268;28;88028;-69
2021/10/24 07:53:26;;;;;;;4.87;2.40;;;9.90;99.90;10.30;102064.00;;;;4929801;28;87831;-68
2021/10/24 07:55:53;;;;;;;2.90;2.60;;;10.20;99.90;10.60;102063.00;;;;4931517;28;88914;-68
2021/10/24 07:58:20;;;;;;;4.77;2.60;;;10.50;99.90;10.80;102063.00;;;;4932141;28;87723;-68
2021/10/24 08:00:50;;;;;;;5.60;3.80;;;10.80;99.90;11.10;102072.00;;;;4932531;28;99289;-68
2021/10/24 08:03:18;;;;;;;3.83;2.83;;;11.00;99.90;11.40;102067.00;;;;4932063;28;88045;-68
2021/10/24 08:05:44;;;;;;;5.57;2.70;;;11.30;99.90;11.70;102077.00;;;;4932437;28;87606;-68
2021/10/24 08:08:09;;;;;;;3.97;3.00;;;11.60;99.90;12.00;102071.00;;;;4930891;28;109246;-68
2021/10/24 08:10:35;;;;;;;6.53;2.93;;;11.90;99.90;12.30;102076.00;;;;4931249;28;112315;-68
2021/10/24 08:13:01;;;;;;;3.43;2.40;;;12.20;99.90;12.60;102074.00;;;;4931100;28;87089;-68
2021/10/24 08:15:27;;;;;;;4.23;2.47;;;12.60;99.90;12.90;102070.00;;;;4937500;28;111395;-67
2021/10/24 08:17:53;;;;;;;5.10;3.07;;;12.80;99.90;13.20;102081.00;;;;4938738;28;108783;-68
2021/10/24 08:20:19;;;;;;;3.50;3.07;;;13.00;99.90;13.40;102072.00;;;;4931425;28;97730;-69
2021/10/24 08:22:45;;;;;;;4.80;2.87;;;13.30;99.40;13.70;102071.00;;;;4932539;28;88161;-67
2021/10/24 08:25:11;;;;;;;8.07;2.57;;;13.50;98.10;13.90;102064.00;;;;4929830;28;88019;-67
2021/10/24 08:27:37;;;;;;;2.73;2.07;;;13.80;96.30;14.10;102064.00;;;;4935346;28;87771;-66
2021/10/24 08:30:07;;;;;;;2.43;1.90;;;14.00;93.20;14.20;102064.00;;;;4942589;28;88835;-67
2021/10/24 08:32:34;;;;;;;3.40;2.03;;;14.10;93.00;14.30;102070.00;;;;4943056;28;88238;-67
2021/10/24 08:35:01;;;;;;;6.47;2.17;;;14.20;91.00;14.30;102060.00;;;;4935886;28;87650;-67
2021/10/24 08:37:27;;;;;;;2.83;2.27;;;14.20;90.00;14.20;102061.00;;;;4934979;28;87238;-67
2021/10/24 08:39:53;;;;;;;5.27;3.30;;;14.20;86.80;14.20;102054.00;;;;4935125;28;88025;-67
2021/10/24 08:42:27;;;;;;;4.67;3.20;;;14.10;87.70;14.10;102058.00;;;;4941902;28;115474;-67
2021/10/24 08:44:56;;;;;;;9.50;3.63;;;14.10;86.70;14.20;102052.00;;;;4938328;28;88446;-67
2021/10/24 08:47:24;;;;;;;4.20;3.10;;;14.10;88.00;14.40;102046.00;;;;4940436;28;87846;-67
2021/10/24 08:49:51;;;;;;;2.50;2.10;;;14.30;88.50;14.60;102043.00;;;;4933519;28;88122;-67
2021/10/24 08:52:20;;;;;;;5.67;2.50;;;14.40;86.40;14.70;102051.00;;;;4933064;28;95495;-67
2021/10/24 08:54:46;;;;;;;3.43;1.83;;;14.60;87.00;14.80;102043.00;;;;4934157;28;99631;-68
2021/10/24 08:57:12;;;;;;;3.47;2.20;;;14.60;84.50;14.80;102046.00;;;;4942904;28;88004;-67
2021/10/24 08:59:38;;;;;;;4.77;1.90;;;14.70;84.30;14.90;102040.00;;;;4934249;28;88544;-68
2021/10/24 09:02:05;;;;;;;3.83;2.30;;;14.80;83.20;14.90;102029.00;;;;4941984;28;88992;-68
2021/10/24 09:04:31;;;;;;;1.90;1.70;;;14.80;80.60;15.00;102029.00;;;;4933518;28;106991;-68
2021/10/24 09:07:02;;;;;;;1.43;1.33;;;14.80;78.80;15.00;102036.00;;;;4935152;28;87593;-68
2021/10/24 09:09:36;;;;;;;4.17;1.87;;;14.90;78.70;15.00;102034.00;;;;4933989;28;88833;-68
2021/10/24 09:12:04;;;;;;;5.30;1.90;;;14.30;77.60;15.10;102036.00;;;;4937753;28;88813;-67
2021/10/24 09:14:50;;;;;;;2.50;1.63;;;15.00;79.20;15.30;102026.00;;;;4938243;28;87711;-68
2021/10/24 09:17:19;;;;;;;3.73;1.70;;;15.10;78.80;15.60;102030.00;;;;4933837;28;87779;-67
2021/10/24 09:19:52;;;;;;;4.53;1.80;;;15.30;77.70;15.70;102026.00;;;;4942279;28;88880;-67
2021/10/24 09:22:40;;;;;;;3.63;1.20;;;15.50;73.00;15.60;102023.00;;;;4943020;28;87586;-67
2021/10/24 09:25:19;;;;;;;1.73;1.33;;;15.40;69.70;15.30;102033.00;;;;4931623;28;98432;-67
2021/10/24 09:27:46;;;;;;;4.03;1.27;;;15.20;68.60;15.10;102022.00;;;;4935268;28;87095;-67
2021/10/24 09:30:27;;;;;;;2.60;0.80;;;15.10;69.90;15.10;102013.00;;;;4941229;28;88853;-67
2021/10/24 09:33:00;;;;;;;6.30;1.00;;;15.00;67.80;15.00;102026.00;;;;4930980;28;88703;-68
2021/10/24 09:35:39;;;;;;;2.40;1.27;;;14.90;67.50;14.90;102019.00;;;;4953055;28;88854;-68
2021/10/24 09:38:23;;;;;;;1.03;0.70;;;15.40;64.80;14.70;102018.00;;;;4947894;28;87900;-66
2021/10/24 09:40:57;;;;;;;1.23;0.83;;;14.70;64.10;14.70;102011.00;;;;4929894;28;88929;-67
2021/10/24 09:43:28;;;;;;;1.13;0.70;;;14.60;64.60;14.50;102014.00;;;;4945367;28;87859;-67
2021/10/24 09:45:57;;;;;;;0.50;0.50;;;14.50;64.30;14.50;102012.00;;;;4931751;28;90026;-68
2021/10/24 09:48:28;;;;;;;1.03;0.87;;;14.40;64.90;14.50;102026.00;;;;4938969;28;87887;-69
2021/10/24 09:50:59;;;;;;;1.70;0.70;;;14.40;65.30;14.60;102011.00;;;;4937718;28;87612;-67
2021/10/24 09:53:26;;;;;;;0.97;0.50;;;14.50;63.60;14.70;102019.00;;;;4952253;28;87813;-67
2021/10/24 09:56:18;;;;;;;1.73;0.87;;;14.50;62.20;14.70;102010.00;;;;4946858;28;88086;-67
2021/10/24 09:58:48;;;;;;;2.53;0.90;;;14.60;61.40;14.70;102006.00;;;;4938787;28;87851;-68
2021/10/24 10:01:18;;;;;;;1.27;1.10;;;14.60;62.10;14.90;101996.00;;;;4958468;28;90009;-67
2021/10/24 10:03:48;;;;;;;3.40;0.83;;;14.60;62.00;14.90;102002.00;;;;4945426;28;89852;-68
2021/10/24 10:06:30;;;;;;;1.20;0.60;;;14.70;60.60;14.90;101998.00;;;;4951998;28;87890;-67
2021/10/24 10:08:58;;;;;;;1.40;0.73;;;14.70;59.70;15.00;102007.00;;;;4933641;28;87675;-67
2021/10/24 10:11:39;;;;;;;2.20;0.77;;;14.80;60.00;15.10;101991.00;;;;4936370;28;117049;-68
2021/10/24 10:14:13;;;;;;;4.13;0.97;;;14.90;59.50;15.20;101991.00;;;;4932126;28;88270;-67
2021/10/24 10:16:43;;;;;;;3.60;0.87;;;15.00;59.30;15.40;101996.00;;;;4933727;28;99153;-67
2021/10/24 10:19:11;;;;;;;0.43;0.40;;;15.20;60.00;15.70;101984.00;;;;4935971;28;87021;-68
2021/10/24 10:21:47;;;;;;;1.67;0.70;;;15.40;59.60;15.90;101976.00;;;;4953988;28;87919;-68
2021/10/24 10:24:34;;;;;;;2.10;1.23;;;15.50;59.60;16.00;101979.00;;;;4942732;28;88937;-67
2021/10/24 10:27:26;;;;;;;2.05;0.57;;;15.70;58.20;16.00;101975.00;;;;4930510;28;88926;-67
2021/10/24 10:30:38;;;;;;;3.17;0.95;;;15.80;57.60;15.90;101966.00;;;;4940254;28;87501;-67
2021/10/24 10:33:34;;;;;;;2.10;0.90;;;15.80;57.10;16.00;101965.00;;;;4941770;28;88156;-67
2021/10/24 10:36:07;;;;;;;1.02;0.77;;;15.90;57.50;16.30;101970.00;;;;4946916;28;87742;-66
2021/10/24 10:38:38;;;;;;;3.38;0.98;;;16.00;57.50;16.30;101968.00;;;;4933462;28;88745;-67
2021/10/24 10:41:05;;;;;;;1.95;0.70;;;16.20;55.60;16.30;101974.00;;;;4934525;28;87673;-67
2021/10/24 10:43:32;;;;;;;1.67;0.52;;;16.10;54.90;16.20;101959.00;;;;4947906;28;89233;-66
2021/10/24 10:46:01;;;;;;;2.92;0.73;;;16.00;55.00;16.30;101956.00;;;;4933735;28;87233;-67
2021/10/24 10:48:32;;;;;;;0.85;0.60;;;16.10;55.80;16.50;101965.00;;;;4931656;28;87755;-67
2021/10/24 10:51:13;;;;;;;2.50;0.95;;;16.20;55.40;16.50;101947.00;;;;4930127;28;87888;-67
2021/10/24 10:53:45;;;;;;;1.38;0.82;;;16.30;55.00;16.60;101955.00;;;;4932418;28;89049;-69
2021/10/24 10:56:16;;;;;;;0.98;0.70;;;16.40;54.90;16.60;101955.00;;;;4931906;28;96300;-71